Time;durP1;ratioP1;P1;durP2;ratioP2;P2;SDS_P1;SDS_P2;PMS_P1;PMS_P2;Temp;Humidity;BMP_temperature;BMP_pressure;BME280_temperature;BME280_humidity;BME280_pressure;Samples;Min_cycle;Max_cycle;Signal;HPM_P1;HPM_P2
2023/09/08 00:04:36;;;;;;;5.37;4.00;;;;;;;;;;4944654;28;20211;-36
2023/09/08 00:13:09;;;;;;;4.80;4.23;;;;;;;;;;4949083;28;20267;-36
2023/09/08 00:15:47;;;;;;;4.70;4.30;;;;;;;;;;4954614;29;20214;-37
2023/09/08 00:18:30;;;;;;;4.00;3.70;;;;;;;;;;4951327;28;20259;-33
2023/09/08 00:21:21;;;;;;;3.87;3.47;;;;;;;;;;4949084;28;20243;-36
2023/09/08 00:24:11;;;;;;;4.20;3.80;;;;;;;;;;4949700;28;20217;-33
2023/09/08 00:26:59;;;;;;;6.43;3.67;;;;;;;;;;4951514;28;20216;-37
2023/09/08 00:32:41;;;;;;;4.37;3.97;;;;;;;;;;4949597;28;20252;-35
2023/09/08 00:35:22;;;;;;;4.67;4.17;;;;;;;;;;4948323;29;20261;-37
2023/09/08 00:38:36;;;;;;;5.63;3.70;;;;;;;;;;4953980;28;20216;-38
2023/09/08 00:44:13;;;;;;;4.20;3.80;;;;;;;;;;4954375;28;20215;-36
2023/09/08 00:46:57;;;;;;;3.77;3.37;;;;;;;;;;4943080;28;20212;-34
2023/09/08 01:05:02;;;;;;;3.70;3.40;;;;;;;;;;4949076;28;20299;-37
2023/09/08 01:10:56;;;;;;;7.77;3.77;;;;;;;;;;4947427;28;20347;-35
2023/09/08 01:13:36;;;;;;;4.10;3.77;;;;;;;;;;4951173;28;20206;-35
2023/09/08 01:16:27;;;;;;;3.60;3.30;;;;;;;;;;4953062;28;20209;-37
2023/09/08 01:19:23;;;;;;;4.10;3.20;;;;;;;;;;4946520;28;20239;-37
2023/09/08 01:22:30;;;;;;;4.90;4.40;;;;;;;;;;4957409;29;20226;-36
2023/09/08 01:25:34;;;;;;;3.40;3.10;;;;;;;;;;4948775;29;20215;-33
2023/09/08 01:31:20;;;;;;;3.90;3.60;;;;;;;;;;4956156;28;20309;-36
2023/09/08 01:34:18;;;;;;;5.33;4.40;;;;;;;;;;4954038;28;20209;-35
2023/09/08 01:37:04;;;;;;;6.33;4.17;;;;;;;;;;4955739;28;20302;-34
2023/09/08 01:43:07;;;;;;;6.03;4.30;;;;;;;;;;4952993;28;20637;-37
2023/09/08 01:46:01;;;;;;;4.93;3.73;;;;;;;;;;4955359;28;20215;-34
2023/09/08 01:48:50;;;;;;;3.87;3.50;;;;;;;;;;4951026;28;20203;-35
2023/09/08 01:54:37;;;;;;;6.00;3.87;;;;;;;;;;4946672;28;20220;-35
2023/09/08 02:00:36;;;;;;;4.17;3.77;;;;;;;;;;4946729;28;20249;-35
2023/09/08 02:03:30;;;;;;;6.43;3.57;;;;;;;;;;4948959;29;20286;-35
2023/09/08 02:06:35;;;;;;;4.73;3.80;;;;;;;;;;4951981;29;20206;-34
2023/09/08 02:09:21;;;;;;;3.27;3.03;;;;;;;;;;4948226;28;20313;-34
2023/09/08 02:12:16;;;;;;;4.83;3.40;;;;;;;;;;4954896;29;20221;-37
2023/09/08 02:15:08;;;;;;;5.73;3.97;;;;;;;;;;4956719;28;20207;-37
2023/09/08 02:24:21;;;;;;;4.33;3.93;;;;;;;;;;4972452;28;20228;-33
2023/09/08 02:27:20;;;;;;;4.90;4.47;;;;;;;;;;4975236;28;20261;-35
2023/09/08 02:30:20;;;;;;;7.17;4.37;;;;;;;;;;4975211;28;20239;-36
2023/09/08 02:33:04;;;;;;;4.37;3.80;;;;;;;;;;4973931;28;20213;-36
2023/09/08 02:35:57;;;;;;;4.13;3.73;;;;;;;;;;4964888;28;20302;-35
2023/09/08 02:41:29;;;;;;;4.33;3.93;;;;;;;;;;4979825;23;20252;-33
2023/09/08 02:44:15;;;;;;;6.03;3.80;;;;;;;;;;4953969;28;20203;-33
2023/09/08 02:47:10;;;;;;;5.73;4.20;;;;;;;;;;4948827;28;20699;-37
2023/09/08 02:50:03;;;;;;;4.60;3.93;;;;;;;;;;4954972;28;20258;-35
2023/09/08 02:53:28;;;;;;;3.87;3.47;;;;;;;;;;4953911;28;20302;-37
2023/09/08 02:56:14;;;;;;;4.57;4.07;;;;;;;;;;4955381;28;20250;-34
2023/09/08 02:59:00;;;;;;;4.30;3.90;;;;;;;;;;4951404;28;20222;-32
2023/09/08 03:01:54;;;;;;;6.23;4.00;;;;;;;;;;4949974;28;20663;-36
2023/09/08 03:04:56;;;;;;;6.60;3.77;;;;;;;;;;4948766;28;20201;-34
2023/09/08 03:13:22;;;;;;;4.03;3.63;;;;;;;;;;4952179;28;20285;-35
2023/09/08 03:16:16;;;;;;;5.13;4.10;;;;;;;;;;4950187;29;20218;-33
2023/09/08 03:22:06;;;;;;;4.57;3.90;;;;;;;;;;5075027;22;20243;-37
2023/09/08 03:24:58;;;;;;;4.10;3.67;;;;;;;;;;4970567;28;20213;-32
2023/09/08 03:30:40;;;;;;;3.90;3.43;;;;;;;;;;4959939;28;20226;-35
2023/09/08 03:33:36;;;;;;;4.10;3.70;;;;;;;;;;4952462;28;20286;-36
2023/09/08 03:36:25;;;;;;;4.60;3.93;;;;;;;;;;4952185;28;20214;-35
2023/09/08 03:39:09;;;;;;;7.50;4.07;;;;;;;;;;4952920;28;20234;-37
2023/09/08 03:41:58;;;;;;;4.17;3.73;;;;;;;;;;4950298;28;20221;-32
2023/09/08 03:44:49;;;;;;;4.17;3.77;;;;;;;;;;4955792;28;20233;-35
2023/09/08 03:50:27;;;;;;;3.50;3.00;;;;;;;;;;4953544;28;20281;-32
2023/09/08 03:53:27;;;;;;;4.00;3.40;;;;;;;;;;4952945;28;20225;-34
2023/09/08 03:56:03;;;;;;;4.60;4.07;;;;;;;;;;4945487;28;20217;-32
2023/09/08 03:58:49;;;;;;;5.90;3.37;;;;;;;;;;4955040;29;20206;-37
2023/09/08 04:01:27;;;;;;;3.87;3.57;;;;;;;;;;4956509;28;20230;-33
2023/09/08 04:04:01;;;;;;;6.13;4.00;;;;;;;;;;4952508;28;20210;-34
2023/09/08 04:06:42;;;;;;;3.70;3.37;;;;;;;;;;4960919;28;20206;-35
2023/09/08 04:09:27;;;;;;;4.60;4.20;;;;;;;;;;4947931;28;20253;-36
2023/09/08 04:12:11;;;;;;;4.40;3.67;;;;;;;;;;4955860;28;20232;-35
2023/09/08 04:14:53;;;;;;;4.80;4.30;;;;;;;;;;4958179;28;20216;-36
2023/09/08 04:17:32;;;;;;;3.97;3.63;;;;;;;;;;4955445;28;20213;-36
2023/09/08 04:20:06;;;;;;;4.13;3.40;;;;;;;;;;4963723;28;20226;-39
2023/09/08 04:22:52;;;;;;;3.70;3.40;;;;;;;;;;4950515;28;20217;-35
2023/09/08 04:25:27;;;;;;;6.27;4.00;;;;;;;;;;4948435;28;20210;-34
2023/09/08 04:28:17;;;;;;;3.97;3.57;;;;;;;;;;4957139;28;20214;-35
2023/09/08 04:31:03;;;;;;;3.50;3.20;;;;;;;;;;4953839;28;20230;-36
2023/09/08 04:33:48;;;;;;;4.13;3.53;;;;;;;;;;4956902;28;20338;-34
2023/09/08 04:36:45;;;;;;;3.73;3.43;;;;;;;;;;4948658;28;20233;-36
2023/09/08 04:39:26;;;;;;;4.17;3.77;;;;;;;;;;4947889;28;20233;-36
2023/09/08 04:42:19;;;;;;;5.73;4.13;;;;;;;;;;4953543;28;20239;-36
2023/09/08 04:44:54;;;;;;;4.30;3.47;;;;;;;;;;4956060;28;20210;-35
2023/09/08 04:47:29;;;;;;;6.00;3.93;;;;;;;;;;4952446;28;20207;-34
2023/09/08 04:50:08;;;;;;;4.37;3.57;;;;;;;;;;4957018;28;20231;-34
2023/09/08 04:55:47;;;;;;;6.30;4.07;;;;;;;;;;4946200;28;20214;-33
2023/09/08 04:58:28;;;;;;;6.07;4.43;;;;;;;;;;4957038;28;20210;-37
2023/09/08 05:01:06;;;;;;;4.23;3.83;;;;;;;;;;4949435;29;20324;-34
2023/09/08 05:03:43;;;;;;;4.00;3.60;;;;;;;;;;4947756;28;20306;-32
2023/09/08 05:06:18;;;;;;;5.70;4.37;;;;;;;;;;4952304;28;20210;-32
2023/09/08 05:09:05;;;;;;;5.03;4.07;;;;;;;;;;4952697;28;20480;-35
2023/09/08 05:11:59;;;;;;;4.57;3.63;;;;;;;;;;4957571;28;20209;-35
2023/09/08 05:14:42;;;;;;;7.17;4.57;;;;;;;;;;4961891;28;20291;-35
2023/09/08 05:17:26;;;;;;;5.20;3.83;;;;;;;;;;4954333;28;20210;-35
2023/09/08 05:20:10;;;;;;;3.83;3.50;;;;;;;;;;4956072;28;20237;-32
2023/09/08 05:22:52;;;;;;;5.13;4.30;;;;;;;;;;4965484;28;20226;-34
2023/09/08 05:25:59;;;;;;;4.13;3.73;;;;;;;;;;4951003;29;20209;-32
2023/09/08 05:28:43;;;;;;;6.00;4.33;;;;;;;;;;4963946;28;20569;-37
2023/09/08 05:31:23;;;;;;;5.70;4.03;;;;;;;;;;4958133;28;20220;-34
2023/09/08 05:34:11;;;;;;;4.27;3.67;;;;;;;;;;4951965;28;20277;-34
2023/09/08 05:37:03;;;;;;;4.97;4.07;;;;;;;;;;4957724;28;20218;-35
2023/09/08 05:39:50;;;;;;;5.07;4.57;;;;;;;;;;4956213;28;20249;-35
2023/09/08 05:42:29;;;;;;;5.20;4.17;;;;;;;;;;4952774;28;20206;-36
2023/09/08 05:45:20;;;;;;;6.20;4.53;;;;;;;;;;4973808;28;20209;-32
2023/09/08 05:48:02;;;;;;;4.33;3.93;;;;;;;;;;4960270;28;20211;-32
2023/09/08 05:50:39;;;;;;;5.30;4.00;;;;;;;;;;4957887;28;20225;-32
2023/09/08 05:53:19;;;;;;;4.97;4.23;;;;;;;;;;4957478;28;20214;-34
2023/09/08 05:56:10;;;;;;;5.63;4.47;;;;;;;;;;4947879;28;20237;-31
2023/09/08 05:58:49;;;;;;;4.40;3.90;;;;;;;;;;4952508;28;20216;-36
2023/09/08 06:01:24;;;;;;;5.87;4.10;;;;;;;;;;4955729;29;20229;-34
2023/09/08 06:07:38;;;;;;;;;;;;;;;;;;;;;
2023/09/08 06:10:30;;;;;;;5.17;4.07;;;;;;;;;;4947225;28;20233;-34
2023/09/08 06:13:21;;;;;;;5.73;4.50;;;;;;;;;;4945455;29;20247;-32
2023/09/08 06:16:19;;;;;;;10.47;4.03;;;;;;;;;;4945696;28;20236;-37
2023/09/08 06:19:03;;;;;;;5.43;4.20;;;;;;;;;;4956836;28;20222;-35
2023/09/08 06:28:12;;;;;;;5.47;4.57;;;;;;;;;;4955072;29;20256;-34
2023/09/08 06:30:51;;;;;;;6.27;4.90;;;;;;;;;;4951548;29;20235;-36
2023/09/08 06:33:38;;;;;;;5.60;4.47;;;;;;;;;;4946278;28;20218;-36
2023/09/08 06:36:21;;;;;;;6.13;4.67;;;;;;;;;;4952060;28;20218;-35
2023/09/08 06:39:17;;;;;;;6.90;5.10;;;;;;;;;;4953908;28;20335;-36
2023/09/08 06:42:07;;;;;;;5.77;4.50;;;;;;;;;;4942523;28;20267;-36
2023/09/08 06:44:46;;;;;;;5.27;4.77;;;;;;;;;;4949104;28;20204;-35
2023/09/08 06:47:44;;;;;;;4.50;4.10;;;;;;;;;;4955796;29;20220;-33
2023/09/08 06:50:35;;;;;;;5.87;4.50;;;;;;;;;;4955591;29;20274;-36
2023/09/08 06:53:16;;;;;;;6.50;5.33;;;;;;;;;;4950610;28;20218;-34
2023/09/08 06:56:05;;;;;;;7.17;5.00;;;;;;;;;;4949784;29;20246;-33
2023/09/08 06:58:52;;;;;;;6.33;4.77;;;;;;;;;;4949463;28;20206;-34
2023/09/08 07:01:46;;;;;;;4.63;4.13;;;;;;;;;;4946682;29;20250;-36
2023/09/08 07:04:21;;;;;;;5.73;5.10;;;;;;;;;;4952327;28;20294;-33
2023/09/08 07:07:07;;;;;;;7.10;4.40;;;;;;;;;;4955993;28;20242;-37
2023/09/08 07:10:04;;;;;;;6.47;5.53;;;;;;;;;;4940596;28;20620;-32
2023/09/08 07:12:48;;;;;;;6.40;5.33;;;;;;;;;;4948932;29;20214;-38
2023/09/08 07:15:35;;;;;;;8.57;6.57;;;;;;;;;;4954855;28;20215;-36
2023/09/08 07:21:20;;;;;;;6.23;5.03;;;;;;;;;;4971751;23;20295;-34
2023/09/08 07:24:00;;;;;;;6.40;5.60;;;;;;;;;;4953144;28;20218;-34
2023/09/08 07:26:39;;;;;;;6.97;5.63;;;;;;;;;;4951694;28;20222;-35
2023/09/08 07:29:18;;;;;;;6.80;6.13;;;;;;;;;;4950637;28;20234;-37
2023/09/08 07:31:51;;;;;;;6.43;5.77;;;;;;;;;;4936265;28;20208;-34
2023/09/08 07:34:26;;;;;;;8.37;5.77;;;;;;;;;;4934985;29;20211;-36
2023/09/08 07:37:02;;;;;;;6.03;5.43;;;;;;;;;;4933036;29;20209;-34
2023/09/08 07:39:40;;;;;;;8.23;5.80;;;;;;;;;;4923301;29;20286;-34
2023/09/08 07:42:10;;;;;;;8.60;6.27;;;;;;;;;;4933159;29;20207;-33
2023/09/08 07:44:38;;;;;;;6.97;5.70;;;;;;;;;;4934996;29;20210;-37
2023/09/08 07:47:09;;;;;;;8.83;5.60;;;;;;;;;;4933887;29;20243;-33
2023/09/08 07:49:44;;;;;;;6.10;5.50;;;;;;;;;;4935426;29;20280;-32
2023/09/08 07:52:19;;;;;;;7.57;5.13;;;;;;;;;;4932930;29;20302;-37
2023/09/08 07:54:53;;;;;;;7.67;6.27;;;;;;;;;;4930331;29;20230;-32
2023/09/08 07:57:25;;;;;;;8.57;6.03;;;;;;;;;;4932500;29;20237;-34
2023/09/08 08:00:02;;;;;;;6.97;5.40;;;;;;;;;;4935716;28;20230;-37
2023/09/08 08:02:33;;;;;;;9.00;5.93;;;;;;;;;;4927913;29;20271;-36
2023/09/08 08:05:10;;;;;;;9.20;6.27;;;;;;;;;;4931348;28;20211;-36
2023/09/08 08:08:00;;;;;;;7.77;5.60;;;;;;;;;;4935784;29;20262;-32
2023/09/08 08:10:35;;;;;;;7.90;5.57;;;;;;;;;;4926293;29;20233;-32
2023/09/08 08:13:09;;;;;;;6.10;5.30;;;;;;;;;;4933394;29;20231;-34
2023/09/08 08:15:45;;;;;;;6.20;5.00;;;;;;;;;;4935472;29;20294;-33
2023/09/08 08:18:16;;;;;;;6.30;5.53;;;;;;;;;;4929391;28;20212;-35
2023/09/08 08:21:03;;;;;;;7.20;4.73;;;;;;;;;;4936316;28;20262;-33
2023/09/08 08:23:38;;;;;;;6.27;5.57;;;;;;;;;;4938935;29;20208;-34
2023/09/08 08:26:18;;;;;;;5.33;4.83;;;;;;;;;;4937260;29;20215;-34
2023/09/08 08:29:02;;;;;;;7.03;5.03;;;;;;;;;;4935686;29;20208;-33
2023/09/08 08:31:37;;;;;;;6.60;5.50;;;;;;;;;;4935452;29;20201;-32
2023/09/08 08:34:09;;;;;;;10.20;5.47;;;;;;;;;;4934149;28;20215;-36
2023/09/08 08:39:26;;;;;;;8.63;5.50;;;;;;;;;;4970618;28;20262;-42
2023/09/08 08:42:03;;;;;;;6.43;5.33;;;;;;;;;;4967032;28;20270;-40
2023/09/08 08:44:40;;;;;;;7.63;6.23;;;;;;;;;;4970208;28;20208;-43
2023/09/08 08:47:12;;;;;;;5.63;5.03;;;;;;;;;;4969704;28;20306;-46
2023/09/08 08:49:47;;;;;;;6.50;4.70;;;;;;;;;;4968983;28;20231;-44
2023/09/08 08:52:20;;;;;;;8.47;5.37;;;;;;;;;;4967040;28;20252;-42
2023/09/08 08:54:56;;;;;;;7.57;4.97;;;;;;;;;;4966493;28;20259;-43
2023/09/08 08:57:33;;;;;;;5.90;5.30;;;;;;;;;;4970537;28;20204;-46
2023/09/08 09:00:19;;;;;;;8.40;5.37;;;;;;;;;;4975555;28;20255;-44
2023/09/08 09:02:54;;;;;;;7.50;5.20;;;;;;;;;;4972270;28;20208;-44
2023/09/08 09:05:33;;;;;;;5.55;5.05;;;;;;;;;;4962900;28;20240;-39
2023/09/08 09:08:15;;;;;;;5.00;4.50;;;;;;;;;;4969987;28;20212;-43
2023/09/08 09:10:51;;;;;;;5.65;4.55;;;;;;;;;;4966258;28;20221;-44
2023/09/08 09:13:36;;;;;;;6.30;4.80;;;;;;;;;;4973581;28;20216;-42
2023/09/08 09:16:20;;;;;;;5.63;4.75;;;;;;;;;;4968378;28;20232;-39
2023/09/08 09:19:08;;;;;;;7.88;4.32;;;;;;;;;;4959076;28;20229;-41
2023/09/08 09:21:55;;;;;;;6.22;4.75;;;;;;;;;;4965203;28;20566;-46
2023/09/08 09:24:49;;;;;;;8.32;4.57;;;;;;;;;;4963236;28;20275;-46
2023/09/08 09:27:31;;;;;;;6.00;4.35;;;;;;;;;;4972787;28;20289;-42
2023/09/08 09:30:13;;;;;;;6.25;4.70;;;;;;;;;;4969725;28;20234;-45
2023/09/08 09:32:52;;;;;;;5.32;4.80;;;;;;;;;;4969501;28;20209;-43
2023/09/08 09:35:32;;;;;;;6.75;4.57;;;;;;;;;;4966496;28;20214;-44
2023/09/08 09:38:13;;;;;;;6.82;4.90;;;;;;;;;;4957426;28;20249;-42
2023/09/08 09:40:55;;;;;;;5.82;4.72;;;;;;;;;;4956859;28;20240;-45
2023/09/08 09:43:41;;;;;;;5.65;4.35;;;;;;;;;;4966429;28;20293;-44
2023/09/08 09:49:42;;;;;;;5.20;4.72;;;;;;;;;;4958561;28;20250;-44
2023/09/08 09:52:20;;;;;;;5.07;4.07;;;;;;;;;;4975538;28;20295;-45
2023/09/08 09:58:26;;;;;;;4.80;4.22;;;;;;;;;;4964047;28;20245;-44
2023/09/08 10:01:00;;;;;;;4.82;4.40;;;;;;;;;;4971673;28;20232;-44
2023/09/08 10:03:48;;;;;;;5.32;4.50;;;;;;;;;;4968622;28;20212;-46
2023/09/08 10:06:28;;;;;;;4.80;4.07;;;;;;;;;;4967035;28;20221;-44
2023/09/08 10:09:01;;;;;;;4.28;3.88;;;;;;;;;;4955825;28;20260;-44
2023/09/08 10:11:38;;;;;;;5.00;4.50;;;;;;;;;;4966109;28;20201;-46
2023/09/08 10:14:11;;;;;;;5.60;5.10;;;;;;;;;;4960705;28;20201;-43
2023/09/08 10:16:49;;;;;;;5.22;4.10;;;;;;;;;;4957253;28;20320;-42
2023/09/08 10:19:20;;;;;;;5.28;4.32;;;;;;;;;;4958397;28;20370;-43
2023/09/08 10:21:50;;;;;;;4.68;4.18;;;;;;;;;;4965047;28;20222;-44
2023/09/08 10:24:22;;;;;;;4.68;4.20;;;;;;;;;;4968622;28;20203;-39
2023/09/08 10:27:03;;;;;;;4.93;4.18;;;;;;;;;;4960571;28;20214;-45
2023/09/08 10:29:31;;;;;;;5.63;4.60;;;;;;;;;;4964065;28;20327;-45
2023/09/08 10:32:06;;;;;;;4.53;4.00;;;;;;;;;;4963860;28;20226;-44
2023/09/08 10:34:40;;;;;;;4.47;3.75;;;;;;;;;;4971374;28;20215;-42
2023/09/08 10:37:21;;;;;;;9.02;4.50;;;;;;;;;;5140691;23;20214;-34
2023/09/08 10:39:51;;;;;;;4.97;4.47;;;;;;;;;;4949349;29;20337;-36
2023/09/08 10:42:26;;;;;;;6.53;4.28;;;;;;;;;;4954230;29;20249;-37
2023/09/08 10:45:04;;;;;;;5.95;4.70;;;;;;;;;;4943518;28;20210;-37
2023/09/08 10:47:41;;;;;;;5.75;4.97;;;;;;;;;;4949541;29;20244;-38
2023/09/08 10:50:09;;;;;;;4.40;4.00;;;;;;;;;;4952142;28;20229;-37
2023/09/08 10:52:55;;;;;;;5.45;4.75;;;;;;;;;;4944092;29;20725;-33
2023/09/08 10:55:58;;;;;;;5.38;4.63;;;;;;;;;;4944755;28;20292;-36
2023/09/08 10:58:46;;;;;;;6.50;4.68;;;;;;;;;;4906593;29;20219;-39
2023/09/08 11:01:15;;;;;;;5.93;4.95;;;;;;;;;;4940336;28;20235;-35
2023/09/08 11:03:47;;;;;;;6.15;4.93;;;;;;;;;;4954545;29;20276;-39
2023/09/08 11:06:18;;;;;;;7.47;4.68;;;;;;;;;;4949823;28;20233;-35
2023/09/08 11:14:54;;;;;;;4.93;4.53;;;;;;;;;;4951968;29;20216;-35
2023/09/08 11:17:34;;;;;;;5.20;4.55;;;;;;;;;;4955162;29;20197;-36
2023/09/08 11:20:19;;;;;;;5.45;4.90;;;;;;;;;;4976024;23;20260;-35
2023/09/08 11:23:11;;;;;;;4.63;4.22;;;;;;;;;;4968123;28;20243;-33
2023/09/08 11:25:58;;;;;;;7.10;4.70;;;;;;;;;;4966119;28;20211;-37
2023/09/08 11:28:30;;;;;;;5.32;4.32;;;;;;;;;;4972008;28;20206;-38
2023/09/08 11:31:24;;;;;;;5.72;4.50;;;;;;;;;;4951260;28;20217;-37
2023/09/08 11:34:20;;;;;;;11.65;4.88;;;;;;;;;;4945645;29;20211;-34
2023/09/08 11:36:55;;;;;;;4.78;4.38;;;;;;;;;;4943331;29;20216;-35
2023/09/08 11:39:31;;;;;;;10.82;4.80;;;;;;;;;;4941612;28;20229;-35
2023/09/08 11:42:10;;;;;;;5.40;4.03;;;;;;;;;;4947983;29;20224;-33
2023/09/08 11:44:59;;;;;;;5.05;4.55;;;;;;;;;;4952951;28;20226;-33
2023/09/08 11:47:59;;;;;;;4.63;4.22;;;;;;;;;;4954634;29;20238;-36
2023/09/08 11:50:36;;;;;;;5.88;4.10;;;;;;;;;;4949553;29;20258;-34
2023/09/08 11:53:14;;;;;;;5.38;4.88;;;;;;;;;;4951850;28;20208;-37
2023/09/08 11:56:04;;;;;;;4.93;4.32;;;;;;;;;;4946646;29;20218;-34
2023/09/08 12:01:17;;;;;;;5.85;5.00;;;;;;;;;;4968599;23;20236;-34
2023/09/08 12:04:02;;;;;;;4.40;4.00;;;;;;;;;;4952111;29;20211;-33
2023/09/08 12:06:45;;;;;;;5.88;4.43;;;;;;;;;;4955864;28;20243;-35
2023/09/08 12:09:36;;;;;;;5.35;4.85;;;;;;;;;;4956528;28;20225;-35
2023/09/08 12:12:24;;;;;;;5.00;4.20;;;;;;;;;;4959396;28;20214;-35
2023/09/08 12:25:31;;;;;;;4.72;3.90;;;;;;;;;;4951227;28;20231;-33
2023/09/08 12:28:05;;;;;;;5.55;5.05;;;;;;;;;;4951440;29;20223;-36
2023/09/08 12:30:48;;;;;;;4.40;4.00;;;;;;;;;;4942617;28;20369;-35
2023/09/08 12:33:25;;;;;;;4.93;4.43;;;;;;;;;;4932624;29;20215;-36
2023/09/08 12:36:00;;;;;;;4.72;4.32;;;;;;;;;;4929686;29;20280;-34
2023/09/08 12:38:35;;;;;;;4.85;4.40;;;;;;;;;;4930620;29;20208;-36
2023/09/08 12:41:33;;;;;;;5.22;4.75;;;;;;;;;;4933207;29;20224;-36
2023/09/08 12:44:43;;;;;;;5.07;4.57;;;;;;;;;;4932763;29;20209;-35
2023/09/08 12:47:29;;;;;;;4.68;4.28;;;;;;;;;;4928939;29;20216;-35
2023/09/08 12:50:16;;;;;;;6.32;4.75;;;;;;;;;;4929704;29;20235;-36
2023/09/08 12:53:17;;;;;;;5.13;4.63;;;;;;;;;;4932890;29;20204;-33
2023/09/08 12:55:55;;;;;;;5.65;3.90;;;;;;;;;;4934403;28;20211;-32
2023/09/08 12:58:34;;;;;;;5.75;3.90;;;;;;;;;;4933188;29;20236;-34
2023/09/08 13:04:39;;;;;;;6.57;4.20;;;;;;;;;;4392872;27;21359244;-44
2023/09/08 13:07:36;;;;;;;4.80;3.70;;;;;;;;;;5140670;27;20228;-40
2023/09/08 13:10:42;;;;;;;4.40;4.03;;;;;;;;;;5094036;28;20274;-42
2023/09/08 13:13:34;;;;;;;4.15;3.63;;;;;;;;;;5123092;28;20632;-39
2023/09/08 13:16:21;;;;;;;4.88;4.40;;;;;;;;;;5114134;28;20337;-41
2023/09/08 13:19:18;;;;;;;4.03;3.70;;;;;;;;;;5110719;28;20228;-41
2023/09/08 13:22:06;;;;;;;5.65;3.95;;;;;;;;;;5119842;28;20203;-42
2023/09/08 13:24:50;;;;;;;3.70;3.40;;;;;;;;;;5117136;28;20520;-43
2023/09/08 13:30:29;;;;;;;4.68;3.78;;;;;;;;;;5096405;28;20246;-40
2023/09/08 13:32:59;;;;;;;4.03;3.63;;;;;;;;;;5119706;28;20206;-44
2023/09/08 13:35:28;;;;;;;3.35;3.05;;;;;;;;;;5114651;28;20198;-39
2023/09/08 13:38:09;;;;;;;3.63;3.28;;;;;;;;;;5113646;28;20206;-46
2023/09/08 13:40:45;;;;;;;3.83;3.45;;;;;;;;;;5114679;28;20222;-46
2023/09/08 13:43:27;;;;;;;5.75;4.13;;;;;;;;;;5117325;28;20638;-44
2023/09/08 13:46:17;;;;;;;6.60;3.63;;;;;;;;;;5124326;28;20199;-46
2023/09/08 13:49:02;;;;;;;5.45;3.67;;;;;;;;;;5122033;28;20198;-42
2023/09/08 13:51:40;;;;;;;7.95;3.95;;;;;;;;;;5111798;28;20219;-44
2023/09/08 13:54:43;;;;;;;3.78;3.47;;;;;;;;;;5104275;28;20202;-41
2023/09/08 13:57:19;;;;;;;4.03;3.42;;;;;;;;;;5121054;28;20214;-44
2023/09/08 13:59:54;;;;;;;3.97;3.58;;;;;;;;;;5111920;28;20223;-45
2023/09/08 14:02:35;;;;;;;4.07;3.67;;;;;;;;;;5114928;28;20213;-41
2023/09/08 14:05:21;;;;;;;4.45;3.45;;;;;;;;;;5115037;28;20214;-43
2023/09/08 14:08:25;;;;;;;3.67;3.40;;;;;;;;;;5119913;28;20275;-44
2023/09/08 14:11:12;;;;;;;3.22;3.00;;;;;;;;;;5119303;28;20243;-43
2023/09/08 14:13:56;;;;;;;3.83;3.53;;;;;;;;;;5125014;28;20291;-42
2023/09/08 14:19:47;;;;;;;5.80;3.80;;;;;;;;;;5098938;28;20223;-45
2023/09/08 15:33:04;;;;;;;3.38;3.08;;;;;;;;;;5053412;28;20300;-32
2023/09/08 15:36:18;;;;;;;3.65;3.35;;;;;;;;;;5050336;28;20336;-33
2023/09/08 15:39:10;;;;;;;3.58;3.28;;;;;;;;;;5044818;28;20232;-35
2023/09/08 15:41:55;;;;;;;4.00;3.70;;;;;;;;;;5033536;28;20202;-34
2023/09/08 15:44:37;;;;;;;4.47;3.63;;;;;;;;;;5031888;28;20228;-32
2023/09/08 15:47:16;;;;;;;5.20;3.95;;;;;;;;;;5032973;28;20212;-33
2023/09/08 18:11:32;;;;;;;5.82;4.75;;;;;;;;;;5062662;28;20248;-38
2023/09/08 18:41:06;;;;;;;5.07;4.57;;;;;;;;;;5064905;28;20229;-40
2023/09/08 18:46:38;;;;;;;6.50;4.82;;;;;;;;;;5058804;28;20313;-40
2023/09/08 19:01:35;;;;;;;11.40;6.75;;;;;;;;;;5088737;23;20345;-31
2023/09/08 19:04:44;;;;;;;7.03;6.38;;;;;;;;;;5061481;28;20230;-37
2023/09/08 19:07:21;;;;;;;7.05;6.20;;;;;;;;;;5063369;28;20207;-33
2023/09/08 19:27:29;;;;;;;7.03;6.32;;;;;;;;;;5031655;28;20199;-33
2023/09/08 19:33:12;;;;;;;7.03;5.70;;;;;;;;;;5063458;28;20193;-35
2023/09/08 20:16:31;;;;;;;6.03;5.15;;;;;;;;;;5050448;28;20228;-37
2023/09/08 20:22:38;;;;;;;5.93;5.03;;;;;;;;;;5072312;28;20200;-35
2023/09/08 20:25:14;;;;;;;5.65;4.97;;;;;;;;;;5068771;28;20228;-36
2023/09/08 20:28:12;;;;;;;5.85;5.22;;;;;;;;;;5074920;28;20201;-35
2023/09/08 20:48:38;;;;;;;7.07;4.43;;;;;;;;;;5063486;28;20225;-43
2023/09/08 20:54:37;;;;;;;6.18;5.55;;;;;;;;;;5045685;28;20220;-42
2023/09/08 20:57:17;;;;;;;6.45;5.20;;;;;;;;;;5050456;28;20206;-46
2023/09/08 20:59:50;;;;;;;7.63;5.28;;;;;;;;;;5045211;28;20233;-45
2023/09/08 21:02:31;;;;;;;6.65;5.20;;;;;;;;;;5051200;28;20209;-43
2023/09/08 21:05:09;;;;;;;5.30;4.80;;;;;;;;;;5048027;28;20226;-42
2023/09/08 21:14:01;;;;;;;5.78;5.18;;;;;;;;;;5077282;28;20240;-42
2023/09/08 21:16:32;;;;;;;6.00;5.40;;;;;;;;;;5086008;28;20236;-45
2023/09/08 21:19:34;;;;;;;6.18;5.40;;;;;;;;;;5084429;28;20271;-46
2023/09/08 21:22:25;;;;;;;5.22;4.78;;;;;;;;;;5066377;28;20211;-43
2023/09/08 21:27:34;;;;;;;5.25;4.75;;;;;;;;;;5075372;28;20307;-32
2023/09/08 21:30:01;;;;;;;7.55;5.53;;;;;;;;;;5058619;28;20225;-28
2023/09/08 21:32:28;;;;;;;6.07;5.47;;;;;;;;;;5052391;28;20210;-28
2023/09/08 21:34:55;;;;;;;7.47;5.55;;;;;;;;;;5046682;28;20205;-29
2023/09/08 21:37:24;;;;;;;6.18;4.88;;;;;;;;;;5047375;28;20229;-30
2023/09/08 21:39:51;;;;;;;7.90;4.90;;;;;;;;;;5047288;28;20225;-28
2023/09/08 21:42:18;;;;;;;5.13;4.63;;;;;;;;;;5050117;28;20198;-34
2023/09/08 21:44:45;;;;;;;5.22;4.70;;;;;;;;;;5052659;28;20217;-33
2023/09/08 21:47:13;;;;;;;8.95;5.18;;;;;;;;;;5055006;28;20259;-33
2023/09/08 21:49:40;;;;;;;6.22;5.05;;;;;;;;;;5048889;28;20242;-32
2023/09/08 21:52:07;;;;;;;5.32;4.85;;;;;;;;;;5046122;28;20322;-32
2023/09/08 21:54:36;;;;;;;5.22;4.72;;;;;;;;;;5051634;28;20550;-31
2023/09/08 21:57:03;;;;;;;6.72;4.88;;;;;;;;;;5050906;28;20194;-33
2023/09/08 21:59:30;;;;;;;5.47;4.97;;;;;;;;;;5048532;28;20230;-32
2023/09/08 22:01:57;;;;;;;5.18;4.78;;;;;;;;;;5046695;28;20209;-33
2023/09/08 22:04:24;;;;;;;7.57;5.07;;;;;;;;;;5058080;28;20233;-33
2023/09/08 22:06:52;;;;;;;7.78;5.38;;;;;;;;;;5054145;28;20237;-30
2023/09/08 22:09:20;;;;;;;6.10;5.53;;;;;;;;;;5046813;28;20226;-31
2023/09/08 22:11:49;;;;;;;6.80;4.68;;;;;;;;;;5051568;28;20212;-31
2023/09/08 22:14:17;;;;;;;5.60;5.10;;;;;;;;;;5050359;28;20300;-32
2023/09/08 22:16:44;;;;;;;5.82;5.18;;;;;;;;;;5054398;28;20225;-30
2023/09/08 22:19:11;;;;;;;7.10;5.28;;;;;;;;;;5052755;28;20229;-32
2023/09/08 22:21:43;;;;;;;5.53;4.95;;;;;;;;;;5047861;28;20211;-32
2023/09/08 22:24:11;;;;;;;6.20;5.22;;;;;;;;;;5046149;28;20245;-30
2023/09/08 22:26:39;;;;;;;5.78;5.18;;;;;;;;;;5052561;28;20271;-33
2023/09/08 22:29:07;;;;;;;6.10;5.05;;;;;;;;;;5050782;28;20245;-30
2023/09/08 22:31:34;;;;;;;6.20;5.35;;;;;;;;;;5052703;28;20206;-33
2023/09/08 22:34:02;;;;;;;6.00;5.30;;;;;;;;;;5052595;28;20249;-33
2023/09/08 22:36:30;;;;;;;5.32;4.72;;;;;;;;;;5050507;28;20209;-30
2023/09/08 22:38:57;;;;;;;6.95;5.18;;;;;;;;;;5043982;28;20235;-30
2023/09/08 22:41:24;;;;;;;6.93;5.25;;;;;;;;;;5053177;28;20230;-32
2023/09/08 22:43:52;;;;;;;5.72;5.22;;;;;;;;;;5051326;28;20678;-35
2023/09/08 22:46:20;;;;;;;8.38;5.68;;;;;;;;;;5052122;28;20206;-32
2023/09/08 22:48:47;;;;;;;7.85;5.55;;;;;;;;;;5048806;28;20430;-34
2023/09/08 22:51:17;;;;;;;5.47;4.97;;;;;;;;;;5051306;28;20281;-31
2023/09/08 22:53:44;;;;;;;6.80;6.03;;;;;;;;;;5045184;28;20234;-32
2023/09/08 22:56:12;;;;;;;6.28;5.68;;;;;;;;;;5050003;28;20210;-33
2023/09/08 22:58:40;;;;;;;6.93;5.55;;;;;;;;;;5050844;28;20240;-34
2023/09/08 23:01:07;;;;;;;6.20;5.57;;;;;;;;;;5050501;28;20297;-31
2023/09/08 23:03:35;;;;;;;6.90;6.20;;;;;;;;;;5042735;28;20233;-33
2023/09/08 23:06:02;;;;;;;6.55;5.43;;;;;;;;;;5051659;28;20200;-33
2023/09/08 23:08:30;;;;;;;5.20;4.80;;;;;;;;;;5048557;28;20300;-32
2023/09/08 23:10:57;;;;;;;8.23;5.72;;;;;;;;;;5052081;28;20206;-35
2023/09/08 23:13:24;;;;;;;6.25;5.63;;;;;;;;;;5048115;28;20258;-33
2023/09/08 23:15:52;;;;;;;6.03;5.35;;;;;;;;;;5051926;28;20197;-33
2023/09/08 23:18:19;;;;;;;6.35;5.63;;;;;;;;;;5041073;28;20321;-31
2023/09/08 23:20:49;;;;;;;6.32;5.65;;;;;;;;;;5052547;28;20283;-33
2023/09/08 23:23:16;;;;;;;6.45;5.82;;;;;;;;;;5047852;28;20284;-31
2023/09/08 23:25:43;;;;;;;6.35;5.75;;;;;;;;;;5050740;28;20316;-33
2023/09/08 23:28:10;;;;;;;6.85;5.78;;;;;;;;;;5051791;28;20292;-33
2023/09/08 23:30:37;;;;;;;6.40;5.47;;;;;;;;;;5050267;28;20218;-34
2023/09/08 23:33:06;;;;;;;6.03;5.53;;;;;;;;;;5052427;28;20274;-30
2023/09/08 23:35:33;;;;;;;5.95;5.38;;;;;;;;;;5051061;28;20210;-31
2023/09/08 23:38:02;;;;;;;6.53;5.93;;;;;;;;;;5057363;28;20202;-32
2023/09/08 23:40:30;;;;;;;7.03;5.50;;;;;;;;;;5052954;28;20230;-31
2023/09/08 23:42:57;;;;;;;5.67;5.17;;;;;;;;;;5053381;28;20212;-33
2023/09/08 23:45:27;;;;;;;7.83;6.40;;;;;;;;;;5054396;28;20221;-33
2023/09/08 23:47:54;;;;;;;5.80;5.22;;;;;;;;;;5051728;28;20202;-37
2023/09/08 23:50:42;;;;;;;6.10;5.50;;;;;;;;;;5049760;28;20229;-30
2023/09/08 23:53:10;;;;;;;7.73;5.53;;;;;;;;;;5046202;28;20202;-33
2023/09/08 23:55:37;;;;;;;7.90;5.80;;;;;;;;;;5045924;28;20232;-35
2023/09/08 23:58:05;;;;;;;8.07;6.37;;;;;;;;;;5049303;28;20206;-35
